sensor_id;sensor_type;location;lat;lon;timestamp;temperature;humidity
11772;DHT22;12556;55.748;13.194;2023-09-18T00:01:21;16.40;99.90
11772;DHT22;12556;55.748;13.194;2023-09-18T00:03:47;16.50;99.90
11772;DHT22;12556;55.748;13.194;2023-09-18T00:06:14;16.50;99.90
11772;DHT22;12556;55.748;13.194;2023-09-18T00:08:41;16.60;99.90
11772;DHT22;12556;55.748;13.194;2023-09-18T00:11:09;16.50;99.90
11772;DHT22;12556;55.748;13.194;2023-09-18T00:13:38;16.50;99.90
11772;DHT22;12556;55.748;13.194;2023-09-18T00:16:06;16.60;99.90
11772;DHT22;12556;55.748;13.194;2023-09-18T00:18:33;16.60;99.90
11772;DHT22;12556;55.748;13.194;2023-09-18T00:21:00;16.60;99.90
11772;DHT22;12556;55.748;13.194;2023-09-18T00:23:28;16.70;99.90
11772;DHT22;12556;55.748;13.194;2023-09-18T00:25:54;16.70;99.90
11772;DHT22;12556;55.748;13.194;2023-09-18T00:28:21;16.70;99.90
11772;DHT22;12556;55.748;13.194;2023-09-18T00:30:49;16.70;99.90
11772;DHT22;12556;55.748;13.194;2023-09-18T00:33:17;16.70;99.90
11772;DHT22;12556;55.748;13.194;2023-09-18T00:35:46;16.80;99.90
11772;DHT22;12556;55.748;13.194;2023-09-18T00:38:13;16.80;99.90
11772;DHT22;12556;55.748;13.194;2023-09-18T00:40:40;16.80;99.90
11772;DHT22;12556;55.748;13.194;2023-09-18T00:43:07;16.80;99.90
11772;DHT22;12556;55.748;13.194;2023-09-18T00:45:39;16.80;99.90
11772;DHT22;12556;55.748;13.194;2023-09-18T00:48:07;16.80;99.90
11772;DHT22;12556;55.748;13.194;2023-09-18T00:50:36;16.90;99.90
11772;DHT22;12556;55.748;13.194;2023-09-18T00:53:03;16.90;99.90
11772;DHT22;12556;55.748;13.194;2023-09-18T00:55:31;16.90;99.90
11772;DHT22;12556;55.748;13.194;2023-09-18T00:57:58;16.90;99.90
11772;DHT22;12556;55.748;13.194;2023-09-18T01:00:25;16.90;99.90
11772;DHT22;12556;55.748;13.194;2023-09-18T01:02:52;16.90;99.90
11772;DHT22;12556;55.748;13.194;2023-09-18T01:05:19;16.80;99.90
11772;DHT22;12556;55.748;13.194;2023-09-18T01:07:47;16.90;99.90
11772;DHT22;12556;55.748;13.194;2023-09-18T01:10:15;16.90;99.90
11772;DHT22;12556;55.748;13.194;2023-09-18T01:12:46;16.90;99.90
11772;DHT22;12556;55.748;13.194;2023-09-18T01:15:18;16.80;99.90
11772;DHT22;12556;55.748;13.194;2023-09-18T01:17:49;16.90;99.90
11772;DHT22;12556;55.748;13.194;2023-09-18T01:20:16;16.80;99.90
11772;DHT22;12556;55.748;13.194;2023-09-18T01:22:44;16.80;99.90
11772;DHT22;12556;55.748;13.194;2023-09-18T01:25:11;16.80;99.90
11772;DHT22;12556;55.748;13.194;2023-09-18T01:27:38;16.80;99.90
11772;DHT22;12556;55.748;13.194;2023-09-18T01:30:06;16.80;99.90
11772;DHT22;12556;55.748;13.194;2023-09-18T01:32:35;16.80;99.90
11772;DHT22;12556;55.748;13.194;2023-09-18T01:35:04;16.90;99.90
11772;DHT22;12556;55.748;13.194;2023-09-18T01:37:34;16.90;99.90
11772;DHT22;12556;55.748;13.194;2023-09-18T01:40:05;16.90;99.90
11772;DHT22;12556;55.748;13.194;2023-09-18T01:42:33;16.90;99.90
11772;DHT22;12556;55.748;13.194;2023-09-18T01:45:01;16.90;99.90
11772;DHT22;12556;55.748;13.194;2023-09-18T01:47:28;16.90;99.90
11772;DHT22;12556;55.748;13.194;2023-09-18T01:49:54;16.90;99.90
11772;DHT22;12556;55.748;13.194;2023-09-18T01:52:22;16.90;99.90
11772;DHT22;12556;55.748;13.194;2023-09-18T01:54:49;17.00;99.90
11772;DHT22;12556;55.748;13.194;2023-09-18T01:57:17;16.90;99.90
11772;DHT22;12556;55.748;13.194;2023-09-18T01:59:44;16.90;99.90
11772;DHT22;12556;55.748;13.194;2023-09-18T02:02:11;16.90;99.90
11772;DHT22;12556;55.748;13.194;2023-09-18T02:04:38;17.00;99.90
11772;DHT22;12556;55.748;13.194;2023-09-18T02:07:05;16.90;99.90
11772;DHT22;12556;55.748;13.194;2023-09-18T02:09:32;16.90;99.90
11772;DHT22;12556;55.748;13.194;2023-09-18T02:11:59;17.00;99.90
11772;DHT22;12556;55.748;13.194;2023-09-18T02:14:28;17.00;99.90
11772;DHT22;12556;55.748;13.194;2023-09-18T02:16:56;17.20;99.90
11772;DHT22;12556;55.748;13.194;2023-09-18T02:19:23;17.00;99.90
11772;DHT22;12556;55.748;13.194;2023-09-18T02:21:49;17.00;99.90
11772;DHT22;12556;55.748;13.194;2023-09-18T02:24:16;17.00;99.90
11772;DHT22;12556;55.748;13.194;2023-09-18T02:26:43;17.00;99.90
11772;DHT22;12556;55.748;13.194;2023-09-18T02:29:11;17.00;99.90
11772;DHT22;12556;55.748;13.194;2023-09-18T02:31:41;17.10;99.90
11772;DHT22;12556;55.748;13.194;2023-09-18T02:34:08;17.10;99.90
11772;DHT22;12556;55.748;13.194;2023-09-18T02:36:35;17.20;99.90
11772;DHT22;12556;55.748;13.194;2023-09-18T02:39:02;17.10;99.90
11772;DHT22;12556;55.748;13.194;2023-09-18T02:41:29;17.10;99.90
11772;DHT22;12556;55.748;13.194;2023-09-18T02:43:56;17.30;99.90
11772;DHT22;12556;55.748;13.194;2023-09-18T02:46:22;17.20;99.90
11772;DHT22;12556;55.748;13.194;2023-09-18T02:48:51;17.20;99.90
11772;DHT22;12556;55.748;13.194;2023-09-18T02:51:17;17.20;99.90
11772;DHT22;12556;55.748;13.194;2023-09-18T02:53:45;17.20;99.90
11772;DHT22;12556;55.748;13.194;2023-09-18T02:56:12;17.20;99.90
11772;DHT22;12556;55.748;13.194;2023-09-18T02:58:39;17.30;99.90
11772;DHT22;12556;55.748;13.194;2023-09-18T03:01:07;17.30;99.90
11772;DHT22;12556;55.748;13.194;2023-09-18T03:03:34;17.20;99.90
11772;DHT22;12556;55.748;13.194;2023-09-18T03:06:03;17.30;99.90
11772;DHT22;12556;55.748;13.194;2023-09-18T03:08:32;17.30;99.90
11772;DHT22;12556;55.748;13.194;2023-09-18T03:10:59;17.30;99.90
11772;DHT22;12556;55.748;13.194;2023-09-18T03:13:27;17.30;99.90
11772;DHT22;12556;55.748;13.194;2023-09-18T03:15:54;17.30;99.90
11772;DHT22;12556;55.748;13.194;2023-09-18T03:18:22;17.30;99.90
11772;DHT22;12556;55.748;13.194;2023-09-18T03:20:48;17.30;99.90
11772;DHT22;12556;55.748;13.194;2023-09-18T03:23:17;17.30;99.90
11772;DHT22;12556;55.748;13.194;2023-09-18T03:25:44;17.30;99.90
11772;DHT22;12556;55.748;13.194;2023-09-18T03:28:10;17.30;99.90
11772;DHT22;12556;55.748;13.194;2023-09-18T03:30:37;17.30;99.90
11772;DHT22;12556;55.748;13.194;2023-09-18T03:33:04;17.30;99.90
11772;DHT22;12556;55.748;13.194;2023-09-18T03:35:31;17.30;99.90
11772;DHT22;12556;55.748;13.194;2023-09-18T03:37:58;17.40;99.90
11772;DHT22;12556;55.748;13.194;2023-09-18T03:40:27;17.30;99.90
11772;DHT22;12556;55.748;13.194;2023-09-18T03:42:54;17.30;99.90
11772;DHT22;12556;55.748;13.194;2023-09-18T03:45:21;17.30;99.90
11772;DHT22;12556;55.748;13.194;2023-09-18T03:47:47;17.30;99.90
11772;DHT22;12556;55.748;13.194;2023-09-18T03:50:15;17.30;99.90
11772;DHT22;12556;55.748;13.194;2023-09-18T03:52:42;17.30;99.90
11772;DHT22;12556;55.748;13.194;2023-09-18T03:55:09;17.30;99.90
11772;DHT22;12556;55.748;13.194;2023-09-18T03:57:39;17.30;99.90
11772;DHT22;12556;55.748;13.194;2023-09-18T04:00:07;17.30;99.90
11772;DHT22;12556;55.748;13.194;2023-09-18T04:02:35;17.30;99.90
11772;DHT22;12556;55.748;13.194;2023-09-18T04:05:01;17.30;99.90
11772;DHT22;12556;55.748;13.194;2023-09-18T04:07:30;17.30;99.90
11772;DHT22;12556;55.748;13.194;2023-09-18T04:09:57;17.30;99.90
11772;DHT22;12556;55.748;13.194;2023-09-18T04:12:24;17.30;99.90
11772;DHT22;12556;55.748;13.194;2023-09-18T04:14:53;17.30;99.90
11772;DHT22;12556;55.748;13.194;2023-09-18T04:17:20;17.40;99.90
11772;DHT22;12556;55.748;13.194;2023-09-18T04:19:47;17.30;99.90
11772;DHT22;12556;55.748;13.194;2023-09-18T04:22:14;17.30;99.90
11772;DHT22;12556;55.748;13.194;2023-09-18T04:24:41;17.30;99.90
11772;DHT22;12556;55.748;13.194;2023-09-18T04:27:08;17.30;99.90
11772;DHT22;12556;55.748;13.194;2023-09-18T04:29:35;17.30;99.90
11772;DHT22;12556;55.748;13.194;2023-09-18T04:32:04;17.30;99.90
11772;DHT22;12556;55.748;13.194;2023-09-18T04:34:31;17.30;99.90
11772;DHT22;12556;55.748;13.194;2023-09-18T04:37:00;17.30;99.90
11772;DHT22;12556;55.748;13.194;2023-09-18T04:39:29;17.30;99.90
11772;DHT22;12556;55.748;13.194;2023-09-18T04:42:00;17.30;99.90
11772;DHT22;12556;55.748;13.194;2023-09-18T04:44:27;17.30;99.90
11772;DHT22;12556;55.748;13.194;2023-09-18T04:46:54;17.30;99.90
11772;DHT22;12556;55.748;13.194;2023-09-18T04:49:25;17.30;99.90
11772;DHT22;12556;55.748;13.194;2023-09-18T04:51:53;17.30;99.90
11772;DHT22;12556;55.748;13.194;2023-09-18T04:54:20;17.30;99.90
11772;DHT22;12556;55.748;13.194;2023-09-18T04:56:47;17.30;99.90
11772;DHT22;12556;55.748;13.194;2023-09-18T04:59:14;17.30;99.90
11772;DHT22;12556;55.748;13.194;2023-09-18T05:01:41;17.30;99.90
11772;DHT22;12556;55.748;13.194;2023-09-18T05:04:09;17.30;99.90
11772;DHT22;12556;55.748;13.194;2023-09-18T05:06:38;17.30;99.90
11772;DHT22;12556;55.748;13.194;2023-09-18T05:09:06;17.30;99.90
11772;DHT22;12556;55.748;13.194;2023-09-18T05:11:32;17.30;99.90
11772;DHT22;12556;55.748;13.194;2023-09-18T05:13:59;17.30;99.90
11772;DHT22;12556;55.748;13.194;2023-09-18T05:16:26;17.40;99.90
11772;DHT22;12556;55.748;13.194;2023-09-18T05:18:54;17.30;99.90
11772;DHT22;12556;55.748;13.194;2023-09-18T05:21:20;17.40;99.90
11772;DHT22;12556;55.748;13.194;2023-09-18T05:23:51;17.40;99.90
11772;DHT22;12556;55.748;13.194;2023-09-18T05:26:19;17.50;99.90
11772;DHT22;12556;55.748;13.194;2023-09-18T05:28:48;17.40;99.90
11772;DHT22;12556;55.748;13.194;2023-09-18T05:31:15;17.40;99.90
11772;DHT22;12556;55.748;13.194;2023-09-18T05:33:42;17.40;99.90
11772;DHT22;12556;55.748;13.194;2023-09-18T05:36:09;17.40;99.90
11772;DHT22;12556;55.748;13.194;2023-09-18T05:38:36;17.50;99.90
11772;DHT22;12556;55.748;13.194;2023-09-18T05:41:04;17.50;99.90
11772;DHT22;12556;55.748;13.194;2023-09-18T05:43:31;17.50;99.90
11772;DHT22;12556;55.748;13.194;2023-09-18T05:45:58;17.50;99.90
11772;DHT22;12556;55.748;13.194;2023-09-18T05:48:25;17.50;99.90
11772;DHT22;12556;55.748;13.194;2023-09-18T05:50:52;17.50;99.90
11772;DHT22;12556;55.748;13.194;2023-09-18T05:53:19;17.60;99.90
11772;DHT22;12556;55.748;13.194;2023-09-18T05:55:47;17.60;99.90
11772;DHT22;12556;55.748;13.194;2023-09-18T05:58:15;17.60;99.90
11772;DHT22;12556;55.748;13.194;2023-09-18T06:00:45;17.60;99.90
11772;DHT22;12556;55.748;13.194;2023-09-18T06:03:12;17.60;99.90
11772;DHT22;12556;55.748;13.194;2023-09-18T06:05:40;17.70;99.90
11772;DHT22;12556;55.748;13.194;2023-09-18T06:08:07;17.70;99.90
11772;DHT22;12556;55.748;13.194;2023-09-18T06:10:35;17.70;99.90
11772;DHT22;12556;55.748;13.194;2023-09-18T06:13:02;17.80;99.90
11772;DHT22;12556;55.748;13.194;2023-09-18T06:15:33;17.80;99.90
11772;DHT22;12556;55.748;13.194;2023-09-18T06:18:00;17.80;99.90
11772;DHT22;12556;55.748;13.194;2023-09-18T06:20:27;17.90;99.90
11772;DHT22;12556;55.748;13.194;2023-09-18T06:22:53;17.90;99.90
11772;DHT22;12556;55.748;13.194;2023-09-18T06:25:20;18.00;99.90
11772;DHT22;12556;55.748;13.194;2023-09-18T06:27:48;18.00;99.90
11772;DHT22;12556;55.748;13.194;2023-09-18T06:30:14;18.10;99.90
11772;DHT22;12556;55.748;13.194;2023-09-18T06:32:43;18.10;99.90
11772;DHT22;12556;55.748;13.194;2023-09-18T06:35:10;18.20;99.90
11772;DHT22;12556;55.748;13.194;2023-09-18T06:37:37;18.20;99.90
11772;DHT22;12556;55.748;13.194;2023-09-18T06:40:05;18.30;99.90
11772;DHT22;12556;55.748;13.194;2023-09-18T06:42:32;18.40;99.90
11772;DHT22;12556;55.748;13.194;2023-09-18T06:44:59;18.40;99.90
11772;DHT22;12556;55.748;13.194;2023-09-18T06:47:27;18.50;99.90
11772;DHT22;12556;55.748;13.194;2023-09-18T06:49:55;18.50;99.90
11772;DHT22;12556;55.748;13.194;2023-09-18T06:52:22;18.60;99.90
11772;DHT22;12556;55.748;13.194;2023-09-18T06:54:49;18.60;99.90
11772;DHT22;12556;55.748;13.194;2023-09-18T06:57:16;18.80;99.90
11772;DHT22;12556;55.748;13.194;2023-09-18T06:59:43;18.80;99.90
11772;DHT22;12556;55.748;13.194;2023-09-18T07:02:10;18.80;99.90
11772;DHT22;12556;55.748;13.194;2023-09-18T07:04:37;18.80;99.90
11772;DHT22;12556;55.748;13.194;2023-09-18T07:07:11;18.90;99.90
11772;DHT22;12556;55.748;13.194;2023-09-18T07:09:39;18.90;99.90
11772;DHT22;12556;55.748;13.194;2023-09-18T07:12:07;18.90;99.90
11772;DHT22;12556;55.748;13.194;2023-09-18T07:14:34;19.00;99.90
11772;DHT22;12556;55.748;13.194;2023-09-18T07:17:01;19.00;99.90
11772;DHT22;12556;55.748;13.194;2023-09-18T07:19:28;19.00;99.90
11772;DHT22;12556;55.748;13.194;2023-09-18T07:21:55;19.00;99.90
11772;DHT22;12556;55.748;13.194;2023-09-18T07:24:24;19.10;99.90
11772;DHT22;12556;55.748;13.194;2023-09-18T07:26:51;19.10;99.90
11772;DHT22;12556;55.748;13.194;2023-09-18T07:29:18;19.10;99.90
11772;DHT22;12556;55.748;13.194;2023-09-18T07:31:46;19.20;99.90
11772;DHT22;12556;55.748;13.194;2023-09-18T07:34:14;19.30;99.90
11772;DHT22;12556;55.748;13.194;2023-09-18T07:36:42;19.40;99.90
11772;DHT22;12556;55.748;13.194;2023-09-18T07:39:09;19.40;99.90
11772;DHT22;12556;55.748;13.194;2023-09-18T07:41:38;19.40;99.90
11772;DHT22;12556;55.748;13.194;2023-09-18T07:44:06;19.50;99.90
11772;DHT22;12556;55.748;13.194;2023-09-18T07:46:33;19.60;99.90
11772;DHT22;12556;55.748;13.194;2023-09-18T07:48:59;19.70;99.90
11772;DHT22;12556;55.748;13.194;2023-09-18T07:51:26;19.70;99.90
11772;DHT22;12556;55.748;13.194;2023-09-18T07:53:53;19.80;99.90
11772;DHT22;12556;55.748;13.194;2023-09-18T07:56:20;19.90;99.90
11772;DHT22;12556;55.748;13.194;2023-09-18T07:58:48;19.90;99.90
11772;DHT22;12556;55.748;13.194;2023-09-18T08:01:15;19.90;99.90
11772;DHT22;12556;55.748;13.194;2023-09-18T08:03:42;20.00;99.90
11772;DHT22;12556;55.748;13.194;2023-09-18T08:06:09;20.00;99.90
11772;DHT22;12556;55.748;13.194;2023-09-18T08:08:37;20.10;99.90
11772;DHT22;12556;55.748;13.194;2023-09-18T08:11:07;20.20;99.90
11772;DHT22;12556;55.748;13.194;2023-09-18T08:13:35;20.20;99.90
11772;DHT22;12556;55.748;13.194;2023-09-18T08:16:06;20.10;99.90
11772;DHT22;12556;55.748;13.194;2023-09-18T08:18:33;20.20;99.90
11772;DHT22;12556;55.748;13.194;2023-09-18T08:21:00;20.20;99.90
11772;DHT22;12556;55.748;13.194;2023-09-18T08:23:27;20.40;99.90
11772;DHT22;12556;55.748;13.194;2023-09-18T08:25:55;20.40;99.90
11772;DHT22;12556;55.748;13.194;2023-09-18T08:28:23;20.50;99.90
11772;DHT22;12556;55.748;13.194;2023-09-18T08:30:49;20.50;99.90
11772;DHT22;12556;55.748;13.194;2023-09-18T08:33:18;20.60;99.90
11772;DHT22;12556;55.748;13.194;2023-09-18T08:35:45;20.60;99.90
11772;DHT22;12556;55.748;13.194;2023-09-18T08:38:12;20.70;99.90
11772;DHT22;12556;55.748;13.194;2023-09-18T08:40:41;20.70;99.90
11772;DHT22;12556;55.748;13.194;2023-09-18T08:43:10;20.80;99.90
11772;DHT22;12556;55.748;13.194;2023-09-18T08:45:43;20.80;99.90
11772;DHT22;12556;55.748;13.194;2023-09-18T08:48:11;20.80;99.90
11772;DHT22;12556;55.748;13.194;2023-09-18T08:50:40;20.90;99.90
11772;DHT22;12556;55.748;13.194;2023-09-18T08:53:07;21.00;99.90
11772;DHT22;12556;55.748;13.194;2023-09-18T08:55:34;21.10;99.90
11772;DHT22;12556;55.748;13.194;2023-09-18T08:58:01;21.10;99.90
11772;DHT22;12556;55.748;13.194;2023-09-18T09:00:28;21.20;99.90
11772;DHT22;12556;55.748;13.194;2023-09-18T09:02:55;21.20;99.90
11772;DHT22;12556;55.748;13.194;2023-09-18T09:05:22;21.30;99.90
11772;DHT22;12556;55.748;13.194;2023-09-18T09:07:51;21.40;99.90
11772;DHT22;12556;55.748;13.194;2023-09-18T09:10:18;21.50;99.90
11772;DHT22;12556;55.748;13.194;2023-09-18T09:12:55;21.50;99.90
11772;DHT22;12556;55.748;13.194;2023-09-18T09:15:24;21.60;99.90
11772;DHT22;12556;55.748;13.194;2023-09-18T09:17:52;21.80;99.90
11772;DHT22;12556;55.748;13.194;2023-09-18T09:20:27;22.00;99.90
11772;DHT22;12556;55.748;13.194;2023-09-18T09:23:00;22.10;99.90
11772;DHT22;12556;55.748;13.194;2023-09-18T09:25:28;22.20;99.90
11772;DHT22;12556;55.748;13.194;2023-09-18T09:27:58;22.10;99.90
11772;DHT22;12556;55.748;13.194;2023-09-18T09:30:26;22.00;99.90
11772;DHT22;12556;55.748;13.194;2023-09-18T09:32:55;22.00;99.90
11772;DHT22;12556;55.748;13.194;2023-09-18T09:35:23;22.10;99.90
11772;DHT22;12556;55.748;13.194;2023-09-18T09:37:53;22.10;99.90
11772;DHT22;12556;55.748;13.194;2023-09-18T09:40:23;22.20;99.90
11772;DHT22;12556;55.748;13.194;2023-09-18T09:42:51;22.30;99.90
11772;DHT22;12556;55.748;13.194;2023-09-18T09:45:19;22.40;99.90
11772;DHT22;12556;55.748;13.194;2023-09-18T09:47:46;22.50;99.90
11772;DHT22;12556;55.748;13.194;2023-09-18T09:50:15;22.60;99.90
11772;DHT22;12556;55.748;13.194;2023-09-18T09:52:46;22.80;99.90
11772;DHT22;12556;55.748;13.194;2023-09-18T09:55:23;22.90;99.90
11772;DHT22;12556;55.748;13.194;2023-09-18T09:57:52;23.00;99.90
11772;DHT22;12556;55.748;13.194;2023-09-18T10:00:23;23.00;99.90
11772;DHT22;12556;55.748;13.194;2023-09-18T10:03:00;23.10;99.90
11772;DHT22;12556;55.748;13.194;2023-09-18T10:05:30;23.10;99.90
11772;DHT22;12556;55.748;13.194;2023-09-18T10:07:59;23.20;99.90
11772;DHT22;12556;55.748;13.194;2023-09-18T10:10:33;23.30;99.90
11772;DHT22;12556;55.748;13.194;2023-09-18T10:13:07;23.40;99.90
11772;DHT22;12556;55.748;13.194;2023-09-18T10:15:35;23.30;99.90
11772;DHT22;12556;55.748;13.194;2023-09-18T10:18:07;23.30;99.90
11772;DHT22;12556;55.748;13.194;2023-09-18T10:20:40;23.40;99.90
11772;DHT22;12556;55.748;13.194;2023-09-18T10:23:23;23.50;99.90
11772;DHT22;12556;55.748;13.194;2023-09-18T10:25:59;23.60;99.90
11772;DHT22;12556;55.748;13.194;2023-09-18T10:28:28;23.80;99.90
11772;DHT22;12556;55.748;13.194;2023-09-18T10:30:57;24.00;99.90
11772;DHT22;12556;55.748;13.194;2023-09-18T10:33:25;24.10;99.90
11772;DHT22;12556;55.748;13.194;2023-09-18T10:35:53;24.30;99.90
11772;DHT22;12556;55.748;13.194;2023-09-18T10:38:21;24.40;99.90
11772;DHT22;12556;55.748;13.194;2023-09-18T10:40:49;24.50;99.90
11772;DHT22;12556;55.748;13.194;2023-09-18T10:43:17;24.60;99.90
11772;DHT22;12556;55.748;13.194;2023-09-18T10:45:45;24.50;99.90
11772;DHT22;12556;55.748;13.194;2023-09-18T10:48:14;24.60;99.90
11772;DHT22;12556;55.748;13.194;2023-09-18T10:50:42;24.60;99.90
11772;DHT22;12556;55.748;13.194;2023-09-18T10:53:11;24.60;99.90
11772;DHT22;12556;55.748;13.194;2023-09-18T10:55:38;24.70;99.90
11772;DHT22;12556;55.748;13.194;2023-09-18T10:58:06;24.80;99.90
11772;DHT22;12556;55.748;13.194;2023-09-18T11:00:34;25.10;99.90
11772;DHT22;12556;55.748;13.194;2023-09-18T11:03:13;25.20;99.90
11772;DHT22;12556;55.748;13.194;2023-09-18T11:05:40;25.30;99.90
11772;DHT22;12556;55.748;13.194;2023-09-18T11:08:29;25.30;99.90
11772;DHT22;12556;55.748;13.194;2023-09-18T11:11:00;25.50;99.90
11772;DHT22;12556;55.748;13.194;2023-09-18T11:13:36;25.60;99.90
11772;DHT22;12556;55.748;13.194;2023-09-18T11:16:17;25.70;99.90
11772;DHT22;12556;55.748;13.194;2023-09-18T11:18:50;25.70;99.90
11772;DHT22;12556;55.748;13.194;2023-09-18T11:21:23;25.80;99.90
11772;DHT22;12556;55.748;13.194;2023-09-18T11:23:58;25.80;99.90
11772;DHT22;12556;55.748;13.194;2023-09-18T11:26:28;25.70;99.90
11772;DHT22;12556;55.748;13.194;2023-09-18T11:28:56;25.70;99.90
11772;DHT22;12556;55.748;13.194;2023-09-18T11:31:44;25.70;99.90
11772;DHT22;12556;55.748;13.194;2023-09-18T11:34:13;25.80;99.90
11772;DHT22;12556;55.748;13.194;2023-09-18T11:36:40;25.90;99.90
11772;DHT22;12556;55.748;13.194;2023-09-18T11:39:07;26.00;99.90
11772;DHT22;12556;55.748;13.194;2023-09-18T11:41:35;26.10;99.90
11772;DHT22;12556;55.748;13.194;2023-09-18T11:44:31;26.20;99.90
11772;DHT22;12556;55.748;13.194;2023-09-18T11:47:02;26.20;99.90
11772;DHT22;12556;55.748;13.194;2023-09-18T11:49:30;26.20;99.90
11772;DHT22;12556;55.748;13.194;2023-09-18T11:51:59;26.10;99.90
11772;DHT22;12556;55.748;13.194;2023-09-18T11:54:27;26.10;99.90
11772;DHT22;12556;55.748;13.194;2023-09-18T11:56:55;26.00;99.90
11772;DHT22;12556;55.748;13.194;2023-09-18T11:59:34;25.80;99.90
11772;DHT22;12556;55.748;13.194;2023-09-18T12:02:03;25.80;99.90
11772;DHT22;12556;55.748;13.194;2023-09-18T12:04:31;25.60;99.90
11772;DHT22;12556;55.748;13.194;2023-09-18T12:06:58;25.50;99.90
11772;DHT22;12556;55.748;13.194;2023-09-18T12:09:26;25.40;99.90
11772;DHT22;12556;55.748;13.194;2023-09-18T12:11:53;25.40;99.90
11772;DHT22;12556;55.748;13.194;2023-09-18T12:14:22;25.30;99.90
11772;DHT22;12556;55.748;13.194;2023-09-18T12:16:49;25.20;99.90
11772;DHT22;12556;55.748;13.194;2023-09-18T12:19:18;25.20;99.90
11772;DHT22;12556;55.748;13.194;2023-09-18T12:21:46;25.20;99.90
11772;DHT22;12556;55.748;13.194;2023-09-18T12:24:14;25.20;99.90
11772;DHT22;12556;55.748;13.194;2023-09-18T12:26:41;25.20;99.90
11772;DHT22;12556;55.748;13.194;2023-09-18T12:29:08;25.20;99.90
11772;DHT22;12556;55.748;13.194;2023-09-18T12:31:37;25.20;99.90
11772;DHT22;12556;55.748;13.194;2023-09-18T12:34:05;25.20;99.90
11772;DHT22;12556;55.748;13.194;2023-09-18T12:36:43;25.20;99.90
11772;DHT22;12556;55.748;13.194;2023-09-18T12:39:10;25.20;99.90
11772;DHT22;12556;55.748;13.194;2023-09-18T12:41:38;25.20;99.90
11772;DHT22;12556;55.748;13.194;2023-09-18T12:44:06;25.20;99.90
11772;DHT22;12556;55.748;13.194;2023-09-18T12:46:34;25.20;99.90
11772;DHT22;12556;55.748;13.194;2023-09-18T12:49:15;25.20;99.90
11772;DHT22;12556;55.748;13.194;2023-09-18T12:51:44;25.30;99.90
11772;DHT22;12556;55.748;13.194;2023-09-18T12:54:11;25.40;99.90
11772;DHT22;12556;55.748;13.194;2023-09-18T12:56:42;25.50;99.90
11772;DHT22;12556;55.748;13.194;2023-09-18T12:59:10;25.50;99.90
11772;DHT22;12556;55.748;13.194;2023-09-18T13:01:40;25.50;99.90
11772;DHT22;12556;55.748;13.194;2023-09-18T13:04:11;25.40;99.90
11772;DHT22;12556;55.748;13.194;2023-09-18T13:06:38;25.40;99.90
11772;DHT22;12556;55.748;13.194;2023-09-18T13:09:21;25.30;99.90
11772;DHT22;12556;55.748;13.194;2023-09-18T13:11:56;25.20;99.90
11772;DHT22;12556;55.748;13.194;2023-09-18T13:14:24;25.30;99.90
11772;DHT22;12556;55.748;13.194;2023-09-18T13:16:51;25.20;99.90
11772;DHT22;12556;55.748;13.194;2023-09-18T13:19:18;25.20;99.90
11772;DHT22;12556;55.748;13.194;2023-09-18T13:21:48;25.20;99.90
11772;DHT22;12556;55.748;13.194;2023-09-18T13:24:27;25.20;99.90
11772;DHT22;12556;55.748;13.194;2023-09-18T13:26:55;25.20;99.90
11772;DHT22;12556;55.748;13.194;2023-09-18T13:29:23;25.20;99.90
11772;DHT22;12556;55.748;13.194;2023-09-18T13:31:50;25.20;99.90
11772;DHT22;12556;55.748;13.194;2023-09-18T13:34:17;25.20;99.90
11772;DHT22;12556;55.748;13.194;2023-09-18T13:36:44;25.20;99.90
11772;DHT22;12556;55.748;13.194;2023-09-18T13:39:11;25.20;99.90
11772;DHT22;12556;55.748;13.194;2023-09-18T13:41:40;25.20;99.90
11772;DHT22;12556;55.748;13.194;2023-09-18T13:44:07;25.20;99.90
11772;DHT22;12556;55.748;13.194;2023-09-18T13:46:35;25.10;99.90
11772;DHT22;12556;55.748;13.194;2023-09-18T13:49:03;25.10;99.90
11772;DHT22;12556;55.748;13.194;2023-09-18T13:51:30;25.10;99.90
11772;DHT22;12556;55.748;13.194;2023-09-18T13:53:58;25.00;99.90
11772;DHT22;12556;55.748;13.194;2023-09-18T13:56:25;25.00;99.90
11772;DHT22;12556;55.748;13.194;2023-09-18T13:58:55;25.00;99.90
11772;DHT22;12556;55.748;13.194;2023-09-18T14:01:22;25.00;99.90
11772;DHT22;12556;55.748;13.194;2023-09-18T14:03:51;24.90;99.90
11772;DHT22;12556;55.748;13.194;2023-09-18T14:06:18;24.90;99.90
11772;DHT22;12556;55.748;13.194;2023-09-18T14:08:45;24.90;99.90
11772;DHT22;12556;55.748;13.194;2023-09-18T14:11:12;24.80;99.90
11772;DHT22;12556;55.748;13.194;2023-09-18T14:13:38;24.80;99.90
11772;DHT22;12556;55.748;13.194;2023-09-18T14:16:08;24.80;99.90
11772;DHT22;12556;55.748;13.194;2023-09-18T14:18:36;24.70;99.90
11772;DHT22;12556;55.748;13.194;2023-09-18T14:21:03;24.70;99.90
11772;DHT22;12556;55.748;13.194;2023-09-18T14:23:32;24.60;99.90
11772;DHT22;12556;55.748;13.194;2023-09-18T14:25:59;24.60;99.90
11772;DHT22;12556;55.748;13.194;2023-09-18T14:28:27;24.60;99.90
11772;DHT22;12556;55.748;13.194;2023-09-18T14:30:54;24.50;99.90
11772;DHT22;12556;55.748;13.194;2023-09-18T14:33:22;24.40;99.90
11772;DHT22;12556;55.748;13.194;2023-09-18T14:35:49;24.40;99.90
11772;DHT22;12556;55.748;13.194;2023-09-18T14:38:16;24.40;99.90
11772;DHT22;12556;55.748;13.194;2023-09-18T14:40:43;24.30;99.90
11772;DHT22;12556;55.748;13.194;2023-09-18T14:43:10;24.40;99.90
11772;DHT22;12556;55.748;13.194;2023-09-18T14:45:37;24.20;99.90
11772;DHT22;12556;55.748;13.194;2023-09-18T14:48:06;24.10;99.90
11772;DHT22;12556;55.748;13.194;2023-09-18T14:50:34;24.00;99.90
11772;DHT22;12556;55.748;13.194;2023-09-18T14:53:01;23.90;99.90
11772;DHT22;12556;55.748;13.194;2023-09-18T14:55:29;23.90;99.90
11772;DHT22;12556;55.748;13.194;2023-09-18T14:57:56;23.80;99.90
11772;DHT22;12556;55.748;13.194;2023-09-18T15:00:23;23.80;99.90
11772;DHT22;12556;55.748;13.194;2023-09-18T15:02:50;23.70;99.90
11772;DHT22;12556;55.748;13.194;2023-09-18T15:05:17;23.70;99.90
11772;DHT22;12556;55.748;13.194;2023-09-18T15:07:45;23.60;99.90
11772;DHT22;12556;55.748;13.194;2023-09-18T15:10:12;23.60;99.90
11772;DHT22;12556;55.748;13.194;2023-09-18T15:12:39;23.40;99.90
11772;DHT22;12556;55.748;13.194;2023-09-18T15:15:08;23.40;99.90
11772;DHT22;12556;55.748;13.194;2023-09-18T15:17:35;23.30;99.90
11772;DHT22;12556;55.748;13.194;2023-09-18T15:20:05;23.30;99.90
11772;DHT22;12556;55.748;13.194;2023-09-18T15:22:32;23.20;99.90